sensor_id;sensor_type;location;lat;lon;timestamp;P1;durP1;ratioP1;P2;durP2;ratioP2
21771;SDS011;11047;47.904;8.110;2023-07-24T00:01:58;11.05;;;7.80;;
21771;SDS011;11047;47.904;8.110;2023-07-24T00:04:25;10.90;;;7.70;;
21771;SDS011;11047;47.904;8.110;2023-07-24T00:06:52;14.13;;;7.63;;
21771;SDS011;11047;47.904;8.110;2023-07-24T00:09:21;11.73;;;7.68;;
21771;SDS011;11047;47.904;8.110;2023-07-24T00:11:48;9.27;;;7.47;;
21771;SDS011;11047;47.904;8.110;2023-07-24T00:14:14;11.98;;;7.47;;
21771;SDS011;11047;47.904;8.110;2023-07-24T00:16:42;12.85;;;7.57;;
21771;SDS011;11047;47.904;8.110;2023-07-24T00:19:08;11.82;;;7.50;;
21771;SDS011;11047;47.904;8.110;2023-07-24T00:21:35;10.25;;;6.95;;
21771;SDS011;11047;47.904;8.110;2023-07-24T00:24:02;10.55;;;6.97;;
21771;SDS011;11047;47.904;8.110;2023-07-24T00:26:31;13.93;;;8.32;;
21771;SDS011;11047;47.904;8.110;2023-07-24T00:28:58;9.48;;;7.10;;
21771;SDS011;11047;47.904;8.110;2023-07-24T00:31:26;11.20;;;7.90;;
21771;SDS011;11047;47.904;8.110;2023-07-24T00:33:52;12.73;;;8.05;;
21771;SDS011;11047;47.904;8.110;2023-07-24T00:36:19;13.43;;;8.32;;
21771;SDS011;11047;47.904;8.110;2023-07-24T00:38:46;13.73;;;8.80;;
21771;SDS011;11047;47.904;8.110;2023-07-24T00:41:13;11.50;;;7.15;;
21771;SDS011;11047;47.904;8.110;2023-07-24T00:43:41;11.13;;;7.80;;
21771;SDS011;11047;47.904;8.110;2023-07-24T00:46:08;13.68;;;8.20;;
21771;SDS011;11047;47.904;8.110;2023-07-24T00:48:37;13.55;;;8.13;;
21771;SDS011;11047;47.904;8.110;2023-07-24T00:51:04;13.00;;;8.32;;
21771;SDS011;11047;47.904;8.110;2023-07-24T00:53:32;13.05;;;7.97;;
21771;SDS011;11047;47.904;8.110;2023-07-24T00:55:59;14.82;;;8.15;;
21771;SDS011;11047;47.904;8.110;2023-07-24T00:58:26;13.15;;;7.43;;
21771;SDS011;11047;47.904;8.110;2023-07-24T01:00:54;12.00;;;8.30;;
21771;SDS011;11047;47.904;8.110;2023-07-24T01:03:21;18.17;;;9.43;;
21771;SDS011;11047;47.904;8.110;2023-07-24T01:05:57;11.68;;;7.93;;
21771;SDS011;11047;47.904;8.110;2023-07-24T01:08:25;14.38;;;8.27;;
21771;SDS011;11047;47.904;8.110;2023-07-24T01:10:53;12.00;;;8.52;;
21771;SDS011;11047;47.904;8.110;2023-07-24T01:13:24;9.30;;;7.82;;
21771;SDS011;11047;47.904;8.110;2023-07-24T01:15:56;10.35;;;7.97;;
21771;SDS011;11047;47.904;8.110;2023-07-24T01:18:30;12.07;;;7.85;;
21771;SDS011;11047;47.904;8.110;2023-07-24T01:21:02;11.25;;;8.18;;
21771;SDS011;11047;47.904;8.110;2023-07-24T01:23:37;11.73;;;7.75;;
21771;SDS011;11047;47.904;8.110;2023-07-24T01:26:14;10.88;;;8.25;;
21771;SDS011;11047;47.904;8.110;2023-07-24T01:28:41;11.50;;;8.00;;
21771;SDS011;11047;47.904;8.110;2023-07-24T01:31:08;11.10;;;7.75;;
21771;SDS011;11047;47.904;8.110;2023-07-24T01:33:35;10.52;;;7.72;;
21771;SDS011;11047;47.904;8.110;2023-07-24T01:36:02;11.60;;;8.07;;
21771;SDS011;11047;47.904;8.110;2023-07-24T01:38:31;14.48;;;8.50;;
21771;SDS011;11047;47.904;8.110;2023-07-24T01:41:00;13.93;;;7.95;;
21771;SDS011;11047;47.904;8.110;2023-07-24T01:43:30;10.88;;;8.10;;
21771;SDS011;11047;47.904;8.110;2023-07-24T01:45:57;11.85;;;8.55;;
21771;SDS011;11047;47.904;8.110;2023-07-24T01:48:24;10.85;;;7.43;;
21771;SDS011;11047;47.904;8.110;2023-07-24T01:50:51;10.45;;;7.85;;
21771;SDS011;11047;47.904;8.110;2023-07-24T01:53:18;11.43;;;8.07;;
21771;SDS011;11047;47.904;8.110;2023-07-24T01:55:45;12.00;;;8.45;;
21771;SDS011;11047;47.904;8.110;2023-07-24T01:58:11;12.05;;;7.70;;
21771;SDS011;11047;47.904;8.110;2023-07-24T02:00:40;12.38;;;8.57;;
21771;SDS011;11047;47.904;8.110;2023-07-24T02:03:06;10.77;;;7.78;;
21771;SDS011;11047;47.904;8.110;2023-07-24T02:05:33;12.55;;;7.93;;
21771;SDS011;11047;47.904;8.110;2023-07-24T02:08:00;10.57;;;7.80;;
21771;SDS011;11047;47.904;8.110;2023-07-24T02:10:27;11.07;;;7.55;;
21771;SDS011;11047;47.904;8.110;2023-07-24T02:12:54;12.90;;;7.57;;
21771;SDS011;11047;47.904;8.110;2023-07-24T02:15:21;11.15;;;7.72;;
21771;SDS011;11047;47.904;8.110;2023-07-24T02:17:49;13.85;;;8.52;;
21771;SDS011;11047;47.904;8.110;2023-07-24T02:20:16;10.45;;;8.27;;
21771;SDS011;11047;47.904;8.110;2023-07-24T02:22:43;10.32;;;7.75;;
21771;SDS011;11047;47.904;8.110;2023-07-24T02:25:10;11.18;;;7.28;;
21771;SDS011;11047;47.904;8.110;2023-07-24T02:27:37;11.07;;;7.50;;
21771;SDS011;11047;47.904;8.110;2023-07-24T02:30:04;9.35;;;7.03;;
21771;SDS011;11047;47.904;8.110;2023-07-24T02:32:32;10.48;;;7.85;;
21771;SDS011;11047;47.904;8.110;2023-07-24T02:35:00;9.90;;;7.57;;
21771;SDS011;11047;47.904;8.110;2023-07-24T02:37:27;12.20;;;7.88;;
21771;SDS011;11047;47.904;8.110;2023-07-24T02:39:54;10.20;;;7.63;;
21771;SDS011;11047;47.904;8.110;2023-07-24T02:42:21;10.13;;;7.22;;
21771;SDS011;11047;47.904;8.110;2023-07-24T02:44:48;10.50;;;7.70;;
21771;SDS011;11047;47.904;8.110;2023-07-24T02:47:15;13.07;;;7.88;;
21771;SDS011;11047;47.904;8.110;2023-07-24T02:49:41;11.45;;;7.75;;
21771;SDS011;11047;47.904;8.110;2023-07-24T02:52:10;10.48;;;7.38;;
21771;SDS011;11047;47.904;8.110;2023-07-24T02:54:37;10.48;;;7.40;;
21771;SDS011;11047;47.904;8.110;2023-07-24T02:57:04;11.60;;;8.18;;
21771;SDS011;11047;47.904;8.110;2023-07-24T02:59:31;11.65;;;8.02;;
21771;SDS011;11047;47.904;8.110;2023-07-24T03:01:59;10.65;;;7.40;;
21771;SDS011;11047;47.904;8.110;2023-07-24T03:04:26;10.32;;;6.82;;
21771;SDS011;11047;47.904;8.110;2023-07-24T03:06:53;10.30;;;7.40;;
21771;SDS011;11047;47.904;8.110;2023-07-24T03:09:21;14.05;;;8.02;;
21771;SDS011;11047;47.904;8.110;2023-07-24T03:11:48;11.98;;;8.05;;
21771;SDS011;11047;47.904;8.110;2023-07-24T03:14:15;12.32;;;7.18;;
21771;SDS011;11047;47.904;8.110;2023-07-24T03:16:42;12.02;;;8.65;;
21771;SDS011;11047;47.904;8.110;2023-07-24T03:19:09;15.55;;;8.35;;
21771;SDS011;11047;47.904;8.110;2023-07-24T03:21:36;10.48;;;7.63;;
21771;SDS011;11047;47.904;8.110;2023-07-24T03:24:03;15.20;;;8.05;;
21771;SDS011;11047;47.904;8.110;2023-07-24T03:26:31;12.90;;;7.60;;
21771;SDS011;11047;47.904;8.110;2023-07-24T03:28:59;12.05;;;8.32;;
21771;SDS011;11047;47.904;8.110;2023-07-24T03:31:27;12.77;;;8.02;;
21771;SDS011;11047;47.904;8.110;2023-07-24T03:33:53;10.32;;;7.82;;
21771;SDS011;11047;47.904;8.110;2023-07-24T03:36:20;11.52;;;7.63;;
21771;SDS011;11047;47.904;8.110;2023-07-24T03:38:47;10.75;;;7.65;;
21771;SDS011;11047;47.904;8.110;2023-07-24T03:41:14;11.80;;;8.15;;
21771;SDS011;11047;47.904;8.110;2023-07-24T03:43:42;10.57;;;8.00;;
21771;SDS011;11047;47.904;8.110;2023-07-24T03:46:09;13.93;;;9.10;;
21771;SDS011;11047;47.904;8.110;2023-07-24T03:48:36;11.90;;;8.48;;
21771;SDS011;11047;47.904;8.110;2023-07-24T03:51:03;13.57;;;9.18;;
21771;SDS011;11047;47.904;8.110;2023-07-24T03:53:30;11.77;;;8.05;;
21771;SDS011;11047;47.904;8.110;2023-07-24T03:55:57;9.82;;;7.80;;
21771;SDS011;11047;47.904;8.110;2023-07-24T03:58:24;12.68;;;8.00;;
21771;SDS011;11047;47.904;8.110;2023-07-24T04:00:52;12.50;;;8.23;;
21771;SDS011;11047;47.904;8.110;2023-07-24T04:03:19;11.68;;;8.65;;
21771;SDS011;11047;47.904;8.110;2023-07-24T04:05:46;15.63;;;8.90;;
21771;SDS011;11047;47.904;8.110;2023-07-24T04:08:13;11.07;;;8.32;;
21771;SDS011;11047;47.904;8.110;2023-07-24T04:10:40;13.13;;;8.55;;
21771;SDS011;11047;47.904;8.110;2023-07-24T04:13:06;12.80;;;7.53;;
21771;SDS011;11047;47.904;8.110;2023-07-24T04:15:33;13.80;;;8.05;;
21771;SDS011;11047;47.904;8.110;2023-07-24T04:18:02;12.18;;;7.75;;
21771;SDS011;11047;47.904;8.110;2023-07-24T04:20:28;11.05;;;7.25;;
21771;SDS011;11047;47.904;8.110;2023-07-24T04:22:55;15.52;;;7.40;;
21771;SDS011;11047;47.904;8.110;2023-07-24T04:25:22;11.52;;;7.40;;
21771;SDS011;11047;47.904;8.110;2023-07-24T04:27:49;12.43;;;7.38;;
21771;SDS011;11047;47.904;8.110;2023-07-24T04:30:16;11.20;;;6.97;;
21771;SDS011;11047;47.904;8.110;2023-07-24T04:32:43;10.85;;;6.50;;
21771;SDS011;11047;47.904;8.110;2023-07-24T04:35:12;10.45;;;6.57;;
21771;SDS011;11047;47.904;8.110;2023-07-24T04:37:39;11.98;;;6.80;;
21771;SDS011;11047;47.904;8.110;2023-07-24T04:40:06;13.13;;;6.68;;
21771;SDS011;11047;47.904;8.110;2023-07-24T04:42:34;13.40;;;6.53;;
21771;SDS011;11047;47.904;8.110;2023-07-24T04:45:01;10.90;;;6.40;;
21771;SDS011;11047;47.904;8.110;2023-07-24T04:47:28;7.40;;;5.47;;
21771;SDS011;11047;47.904;8.110;2023-07-24T04:49:55;11.43;;;6.50;;
21771;SDS011;11047;47.904;8.110;2023-07-24T04:52:23;11.27;;;7.10;;
21771;SDS011;11047;47.904;8.110;2023-07-24T04:54:50;12.35;;;7.22;;
21771;SDS011;11047;47.904;8.110;2023-07-24T04:57:17;10.52;;;6.45;;
21771;SDS011;11047;47.904;8.110;2023-07-24T04:59:44;9.27;;;6.30;;
21771;SDS011;11047;47.904;8.110;2023-07-24T05:02:11;7.68;;;6.15;;
21771;SDS011;11047;47.904;8.110;2023-07-24T05:04:38;11.73;;;7.25;;
21771;SDS011;11047;47.904;8.110;2023-07-24T05:07:06;13.10;;;6.38;;
21771;SDS011;11047;47.904;8.110;2023-07-24T05:09:34;12.30;;;6.63;;
21771;SDS011;11047;47.904;8.110;2023-07-24T05:12:01;10.60;;;5.85;;
21771;SDS011;11047;47.904;8.110;2023-07-24T05:14:29;11.55;;;5.97;;
21771;SDS011;11047;47.904;8.110;2023-07-24T05:16:55;8.55;;;5.13;;
21771;SDS011;11047;47.904;8.110;2023-07-24T05:19:22;11.30;;;6.88;;
21771;SDS011;11047;47.904;8.110;2023-07-24T05:21:49;11.38;;;5.38;;
21771;SDS011;11047;47.904;8.110;2023-07-24T05:24:16;12.43;;;5.65;;
21771;SDS011;11047;47.904;8.110;2023-07-24T05:26:44;7.30;;;4.82;;
21771;SDS011;11047;47.904;8.110;2023-07-24T05:29:11;6.85;;;4.72;;
21771;SDS011;11047;47.904;8.110;2023-07-24T05:31:38;8.70;;;5.45;;
21771;SDS011;11047;47.904;8.110;2023-07-24T05:34:05;8.77;;;5.38;;
21771;SDS011;11047;47.904;8.110;2023-07-24T05:36:32;7.25;;;5.32;;
21771;SDS011;11047;47.904;8.110;2023-07-24T05:38:58;5.70;;;4.60;;
21771;SDS011;11047;47.904;8.110;2023-07-24T05:41:25;7.18;;;4.78;;
21771;SDS011;11047;47.904;8.110;2023-07-24T05:43:54;6.50;;;4.68;;
21771;SDS011;11047;47.904;8.110;2023-07-24T05:46:21;8.10;;;5.15;;
21771;SDS011;11047;47.904;8.110;2023-07-24T05:48:48;6.22;;;5.18;;
21771;SDS011;11047;47.904;8.110;2023-07-24T05:51:15;6.97;;;4.88;;
21771;SDS011;11047;47.904;8.110;2023-07-24T05:53:42;9.50;;;4.80;;
21771;SDS011;11047;47.904;8.110;2023-07-24T05:56:09;9.38;;;5.45;;
21771;SDS011;11047;47.904;8.110;2023-07-24T05:58:36;7.80;;;5.03;;
21771;SDS011;11047;47.904;8.110;2023-07-24T06:01:04;9.40;;;5.38;;
21771;SDS011;11047;47.904;8.110;2023-07-24T06:03:33;7.75;;;5.75;;
21771;SDS011;11047;47.904;8.110;2023-07-24T06:06:00;7.97;;;5.05;;
21771;SDS011;11047;47.904;8.110;2023-07-24T06:08:27;5.75;;;4.70;;
21771;SDS011;11047;47.904;8.110;2023-07-24T06:10:54;9.68;;;5.78;;
21771;SDS011;11047;47.904;8.110;2023-07-24T06:13:20;7.95;;;4.93;;
21771;SDS011;11047;47.904;8.110;2023-07-24T06:15:47;5.85;;;4.72;;
21771;SDS011;11047;47.904;8.110;2023-07-24T06:18:16;7.30;;;5.28;;
21771;SDS011;11047;47.904;8.110;2023-07-24T06:20:43;6.93;;;4.68;;
21771;SDS011;11047;47.904;8.110;2023-07-24T06:23:10;7.65;;;5.00;;
21771;SDS011;11047;47.904;8.110;2023-07-24T06:25:37;7.28;;;4.70;;
21771;SDS011;11047;47.904;8.110;2023-07-24T06:28:03;9.95;;;5.47;;
21771;SDS011;11047;47.904;8.110;2023-07-24T06:30:30;6.88;;;5.15;;
21771;SDS011;11047;47.904;8.110;2023-07-24T06:32:57;6.57;;;5.03;;
21771;SDS011;11047;47.904;8.110;2023-07-24T06:35:25;7.13;;;4.95;;
21771;SDS011;11047;47.904;8.110;2023-07-24T06:37:52;6.85;;;5.28;;
21771;SDS011;11047;47.904;8.110;2023-07-24T06:40:19;6.80;;;5.00;;
21771;SDS011;11047;47.904;8.110;2023-07-24T06:42:46;6.82;;;4.88;;
21771;SDS011;11047;47.904;8.110;2023-07-24T06:45:13;8.18;;;4.13;;
21771;SDS011;11047;47.904;8.110;2023-07-24T06:47:40;6.38;;;4.20;;
21771;SDS011;11047;47.904;8.110;2023-07-24T06:50:07;9.05;;;4.53;;
21771;SDS011;11047;47.904;8.110;2023-07-24T06:52:35;6.32;;;4.70;;
21771;SDS011;11047;47.904;8.110;2023-07-24T06:55:02;6.50;;;4.60;;
21771;SDS011;11047;47.904;8.110;2023-07-24T06:57:30;6.35;;;3.72;;
21771;SDS011;11047;47.904;8.110;2023-07-24T06:59:56;4.43;;;3.75;;
21771;SDS011;11047;47.904;8.110;2023-07-24T07:02:23;4.03;;;3.33;;
21771;SDS011;11047;47.904;8.110;2023-07-24T07:04:51;5.00;;;4.15;;
21771;SDS011;11047;47.904;8.110;2023-07-24T07:07:17;5.20;;;3.70;;
21771;SDS011;11047;47.904;8.110;2023-07-24T07:09:46;4.82;;;3.35;;
21771;SDS011;11047;47.904;8.110;2023-07-24T07:12:13;5.40;;;4.03;;
21771;SDS011;11047;47.904;8.110;2023-07-24T07:14:40;6.80;;;4.45;;
21771;SDS011;11047;47.904;8.110;2023-07-24T07:17:06;6.25;;;3.63;;
21771;SDS011;11047;47.904;8.110;2023-07-24T07:19:33;5.45;;;4.28;;
21771;SDS011;11047;47.904;8.110;2023-07-24T07:22:01;6.97;;;3.80;;
21771;SDS011;11047;47.904;8.110;2023-07-24T07:24:28;6.13;;;4.35;;
21771;SDS011;11047;47.904;8.110;2023-07-24T07:26:56;6.22;;;4.07;;
21771;SDS011;11047;47.904;8.110;2023-07-24T07:29:23;5.97;;;4.18;;
21771;SDS011;11047;47.904;8.110;2023-07-24T07:31:50;5.88;;;4.70;;
21771;SDS011;11047;47.904;8.110;2023-07-24T07:34:17;4.97;;;4.13;;
21771;SDS011;11047;47.904;8.110;2023-07-24T07:36:44;5.45;;;4.20;;
21771;SDS011;11047;47.904;8.110;2023-07-24T07:39:11;5.25;;;4.13;;
21771;SDS011;11047;47.904;8.110;2023-07-24T07:41:37;5.35;;;4.20;;
21771;SDS011;11047;47.904;8.110;2023-07-24T07:44:06;6.38;;;4.75;;
21771;SDS011;11047;47.904;8.110;2023-07-24T07:46:32;5.45;;;3.95;;
21771;SDS011;11047;47.904;8.110;2023-07-24T07:48:59;5.60;;;4.43;;
21771;SDS011;11047;47.904;8.110;2023-07-24T07:51:26;7.90;;;4.22;;
21771;SDS011;11047;47.904;8.110;2023-07-24T07:53:53;6.45;;;4.65;;
21771;SDS011;11047;47.904;8.110;2023-07-24T07:56:20;8.90;;;4.47;;
21771;SDS011;11047;47.904;8.110;2023-07-24T07:58:47;6.22;;;4.30;;
21771;SDS011;11047;47.904;8.110;2023-07-24T08:01:15;6.32;;;4.40;;
21771;SDS011;11047;47.904;8.110;2023-07-24T08:03:42;6.03;;;4.50;;
21771;SDS011;11047;47.904;8.110;2023-07-24T08:09:12;6.65;;;4.90;;
21771;SDS011;11047;47.904;8.110;2023-07-24T08:11:39;6.78;;;4.63;;
21771;SDS011;11047;47.904;8.110;2023-07-24T08:14:06;7.20;;;4.93;;
21771;SDS011;11047;47.904;8.110;2023-07-24T08:16:34;5.95;;;4.40;;
21771;SDS011;11047;47.904;8.110;2023-07-24T08:19:01;7.75;;;4.93;;
21771;SDS011;11047;47.904;8.110;2023-07-24T08:21:28;6.03;;;4.45;;
21771;SDS011;11047;47.904;8.110;2023-07-24T08:23:55;6.70;;;4.47;;
21771;SDS011;11047;47.904;8.110;2023-07-24T08:26:22;6.15;;;4.88;;
21771;SDS011;11047;47.904;8.110;2023-07-24T08:28:51;8.25;;;4.32;;
21771;SDS011;11047;47.904;8.110;2023-07-24T08:31:18;6.78;;;4.60;;
21771;SDS011;11047;47.904;8.110;2023-07-24T08:33:46;5.75;;;4.40;;
21771;SDS011;11047;47.904;8.110;2023-07-24T08:36:13;8.70;;;5.03;;
21771;SDS011;11047;47.904;8.110;2023-07-24T08:38:40;7.13;;;5.00;;
21771;SDS011;11047;47.904;8.110;2023-07-24T08:41:08;7.43;;;4.80;;
21771;SDS011;11047;47.904;8.110;2023-07-24T08:43:37;7.78;;;5.07;;
21771;SDS011;11047;47.904;8.110;2023-07-24T08:46:05;8.20;;;5.70;;
21771;SDS011;11047;47.904;8.110;2023-07-24T08:48:33;7.95;;;5.38;;
21771;SDS011;11047;47.904;8.110;2023-07-24T08:51:03;9.27;;;5.55;;
21771;SDS011;11047;47.904;8.110;2023-07-24T08:53:31;8.20;;;5.35;;
21771;SDS011;11047;47.904;8.110;2023-07-24T08:56:00;6.25;;;4.68;;
21771;SDS011;11047;47.904;8.110;2023-07-24T08:58:29;7.47;;;5.10;;
21771;SDS011;11047;47.904;8.110;2023-07-24T09:00:56;8.55;;;5.75;;
21771;SDS011;11047;47.904;8.110;2023-07-24T09:03:23;8.82;;;5.00;;
21771;SDS011;11047;47.904;8.110;2023-07-24T09:05:51;6.43;;;5.30;;
21771;SDS011;11047;47.904;8.110;2023-07-24T09:08:29;7.03;;;5.45;;
21771;SDS011;11047;47.904;8.110;2023-07-24T09:10:56;6.40;;;4.88;;
21771;SDS011;11047;47.904;8.110;2023-07-24T09:13:23;7.38;;;4.80;;
21771;SDS011;11047;47.904;8.110;2023-07-24T09:15:50;4.85;;;3.92;;
21771;SDS011;11047;47.904;8.110;2023-07-24T09:18:17;5.55;;;4.53;;
21771;SDS011;11047;47.904;8.110;2023-07-24T09:20:44;6.65;;;5.03;;
21771;SDS011;11047;47.904;8.110;2023-07-24T09:23:12;6.93;;;5.47;;
21771;SDS011;11047;47.904;8.110;2023-07-24T09:25:42;6.45;;;5.43;;
21771;SDS011;11047;47.904;8.110;2023-07-24T09:28:10;6.13;;;4.30;;
21771;SDS011;11047;47.904;8.110;2023-07-24T09:30:38;7.15;;;5.05;;
21771;SDS011;11047;47.904;8.110;2023-07-24T09:33:05;11.32;;;5.90;;
21771;SDS011;11047;47.904;8.110;2023-07-24T09:35:32;9.25;;;4.90;;
21771;SDS011;11047;47.904;8.110;2023-07-24T09:38:03;7.82;;;4.28;;
21771;SDS011;11047;47.904;8.110;2023-07-24T09:40:42;10.63;;;4.75;;
21771;SDS011;11047;47.904;8.110;2023-07-24T09:43:16;8.55;;;3.28;;
21771;SDS011;11047;47.904;8.110;2023-07-24T09:48:12;3.63;;;2.00;;
21771;SDS011;11047;47.904;8.110;2023-07-24T09:50:40;2.30;;;1.60;;
21771;SDS011;11047;47.904;8.110;2023-07-24T09:53:09;3.25;;;1.73;;
21771;SDS011;11047;47.904;8.110;2023-07-24T09:55:43;4.88;;;1.40;;
21771;SDS011;11047;47.904;8.110;2023-07-24T09:58:15;4.70;;;1.70;;
21771;SDS011;11047;47.904;8.110;2023-07-24T10:00:44;2.50;;;1.73;;
21771;SDS011;11047;47.904;8.110;2023-07-24T10:03:12;2.45;;;1.27;;
21771;SDS011;11047;47.904;8.110;2023-07-24T10:05:40;2.70;;;1.48;;
21771;SDS011;11047;47.904;8.110;2023-07-24T10:08:08;4.80;;;1.85;;
21771;SDS011;11047;47.904;8.110;2023-07-24T10:10:36;2.78;;;1.70;;
21771;SDS011;11047;47.904;8.110;2023-07-24T10:13:05;2.25;;;1.35;;
21771;SDS011;11047;47.904;8.110;2023-07-24T10:15:36;2.33;;;1.40;;
21771;SDS011;11047;47.904;8.110;2023-07-24T10:18:04;6.68;;;1.88;;
21771;SDS011;11047;47.904;8.110;2023-07-24T10:27:16;3.30;;;1.80;;
21771;SDS011;11047;47.904;8.110;2023-07-24T10:29:58;2.08;;;1.40;;
21771;SDS011;11047;47.904;8.110;2023-07-24T10:32:26;2.78;;;1.52;;
21771;SDS011;11047;47.904;8.110;2023-07-24T10:34:57;2.45;;;1.92;;
21771;SDS011;11047;47.904;8.110;2023-07-24T10:37:31;4.63;;;1.95;;
21771;SDS011;11047;47.904;8.110;2023-07-24T10:40:00;5.40;;;1.63;;
21771;SDS011;11047;47.904;8.110;2023-07-24T10:42:28;4.45;;;2.30;;
21771;SDS011;11047;47.904;8.110;2023-07-24T10:45:03;4.07;;;1.70;;
21771;SDS011;11047;47.904;8.110;2023-07-24T10:47:31;4.35;;;2.00;;
21771;SDS011;11047;47.904;8.110;2023-07-24T10:49:57;2.13;;;1.90;;
21771;SDS011;11047;47.904;8.110;2023-07-24T10:52:32;3.35;;;1.75;;
21771;SDS011;11047;47.904;8.110;2023-07-24T10:55:00;2.95;;;1.98;;
21771;SDS011;11047;47.904;8.110;2023-07-24T10:57:28;4.28;;;2.10;;
21771;SDS011;11047;47.904;8.110;2023-07-24T10:59:55;3.58;;;1.52;;
21771;SDS011;11047;47.904;8.110;2023-07-24T11:02:23;3.53;;;1.95;;
21771;SDS011;11047;47.904;8.110;2023-07-24T11:04:50;3.35;;;1.90;;
21771;SDS011;11047;47.904;8.110;2023-07-24T11:07:17;2.65;;;1.88;;
21771;SDS011;11047;47.904;8.110;2023-07-24T11:09:44;2.83;;;2.10;;
21771;SDS011;11047;47.904;8.110;2023-07-24T11:12:12;3.22;;;2.30;;
21771;SDS011;11047;47.904;8.110;2023-07-24T11:14:49;3.42;;;2.25;;
21771;SDS011;11047;47.904;8.110;2023-07-24T11:17:16;2.65;;;1.92;;
21771;SDS011;11047;47.904;8.110;2023-07-24T11:19:45;2.95;;;2.38;;
21771;SDS011;11047;47.904;8.110;2023-07-24T11:22:12;3.03;;;2.47;;
21771;SDS011;11047;47.904;8.110;2023-07-24T11:24:43;2.60;;;2.20;;
21771;SDS011;11047;47.904;8.110;2023-07-24T11:27:12;3.47;;;2.55;;
21771;SDS011;11047;47.904;8.110;2023-07-24T11:29:41;2.33;;;2.10;;
21771;SDS011;11047;47.904;8.110;2023-07-24T11:32:08;2.45;;;1.75;;
21771;SDS011;11047;47.904;8.110;2023-07-24T11:34:35;2.15;;;1.80;;
21771;SDS011;11047;47.904;8.110;2023-07-24T11:37:04;1.65;;;1.55;;
21771;SDS011;11047;47.904;8.110;2023-07-24T11:39:32;1.77;;;1.40;;
21771;SDS011;11047;47.904;8.110;2023-07-24T11:41:59;1.70;;;1.25;;
21771;SDS011;11047;47.904;8.110;2023-07-24T11:44:27;5.00;;;1.83;;
21771;SDS011;11047;47.904;8.110;2023-07-24T11:47:00;1.48;;;1.25;;
21771;SDS011;11047;47.904;8.110;2023-07-24T11:49:28;1.60;;;1.50;;
21771;SDS011;11047;47.904;8.110;2023-07-24T11:51:59;1.98;;;1.77;;
21771;SDS011;11047;47.904;8.110;2023-07-24T11:54:28;2.08;;;1.83;;
21771;SDS011;11047;47.904;8.110;2023-07-24T11:56:55;2.10;;;1.90;;
21771;SDS011;11047;47.904;8.110;2023-07-24T11:59:22;2.22;;;1.60;;
21771;SDS011;11047;47.904;8.110;2023-07-24T12:01:50;2.72;;;1.65;;
21771;SDS011;11047;47.904;8.110;2023-07-24T12:04:18;1.92;;;1.60;;
21771;SDS011;11047;47.904;8.110;2023-07-24T12:06:45;3.75;;;1.58;;
21771;SDS011;11047;47.904;8.110;2023-07-24T12:09:12;2.03;;;1.60;;
21771;SDS011;11047;47.904;8.110;2023-07-24T12:11:41;2.33;;;1.73;;
21771;SDS011;11047;47.904;8.110;2023-07-24T12:14:09;1.88;;;1.60;;
21771;SDS011;11047;47.904;8.110;2023-07-24T12:16:36;1.85;;;1.60;;
21771;SDS011;11047;47.904;8.110;2023-07-24T12:19:03;1.92;;;1.50;;
21771;SDS011;11047;47.904;8.110;2023-07-24T12:21:30;1.70;;;1.25;;
21771;SDS011;11047;47.904;8.110;2023-07-24T12:23:57;1.58;;;1.48;;
21771;SDS011;11047;47.904;8.110;2023-07-24T12:26:23;1.48;;;1.33;;
21771;SDS011;11047;47.904;8.110;2023-07-24T12:28:54;1.55;;;1.40;;
21771;SDS011;11047;47.904;8.110;2023-07-24T12:31:21;2.00;;;1.40;;
21771;SDS011;11047;47.904;8.110;2023-07-24T12:33:59;3.47;;;1.50;;
21771;SDS011;11047;47.904;8.110;2023-07-24T12:36:26;2.50;;;1.80;;
21771;SDS011;11047;47.904;8.110;2023-07-24T12:38:53;2.33;;;1.80;;
21771;SDS011;11047;47.904;8.110;2023-07-24T12:41:20;2.20;;;1.85;;
21771;SDS011;11047;47.904;8.110;2023-07-24T12:43:47;4.00;;;2.15;;
21771;SDS011;11047;47.904;8.110;2023-07-24T12:46:15;2.38;;;1.75;;
21771;SDS011;11047;47.904;8.110;2023-07-24T12:48:42;2.85;;;2.08;;
21771;SDS011;11047;47.904;8.110;2023-07-24T12:51:09;2.35;;;1.77;;
21771;SDS011;11047;47.904;8.110;2023-07-24T12:53:36;2.30;;;2.08;;
21771;SDS011;11047;47.904;8.110;2023-07-24T12:56:03;2.65;;;2.03;;
21771;SDS011;11047;47.904;8.110;2023-07-24T12:58:30;3.00;;;2.20;;
21771;SDS011;11047;47.904;8.110;2023-07-24T13:00:57;3.08;;;2.05;;
21771;SDS011;11047;47.904;8.110;2023-07-24T13:03:25;2.22;;;1.80;;
21771;SDS011;11047;47.904;8.110;2023-07-24T13:05:52;2.72;;;1.98;;
21771;SDS011;11047;47.904;8.110;2023-07-24T13:08:19;4.18;;;2.10;;
21771;SDS011;11047;47.904;8.110;2023-07-24T13:10:47;2.83;;;2.35;;
21771;SDS011;11047;47.904;8.110;2023-07-24T13:13:14;2.00;;;1.80;;
21771;SDS011;11047;47.904;8.110;2023-07-24T13:15:40;3.33;;;1.90;;
21771;SDS011;11047;47.904;8.110;2023-07-24T13:18:07;2.42;;;2.10;;
21771;SDS011;11047;47.904;8.110;2023-07-24T13:20:36;4.70;;;2.08;;
21771;SDS011;11047;47.904;8.110;2023-07-24T13:23:02;2.72;;;2.00;;
21771;SDS011;11047;47.904;8.110;2023-07-24T13:25:29;4.28;;;2.30;;
21771;SDS011;11047;47.904;8.110;2023-07-24T13:27:56;3.40;;;2.30;;
21771;SDS011;11047;47.904;8.110;2023-07-24T13:30:23;4.00;;;2.42;;
21771;SDS011;11047;47.904;8.110;2023-07-24T13:32:50;1.88;;;1.75;;
21771;SDS011;11047;47.904;8.110;2023-07-24T13:35:17;4.47;;;2.70;;
21771;SDS011;11047;47.904;8.110;2023-07-24T13:37:45;2.22;;;2.00;;
21771;SDS011;11047;47.904;8.110;2023-07-24T13:40:12;3.70;;;2.40;;
21771;SDS011;11047;47.904;8.110;2023-07-24T13:42:39;3.95;;;2.25;;
21771;SDS011;11047;47.904;8.110;2023-07-24T13:45:12;3.35;;;2.70;;
21771;SDS011;11047;47.904;8.110;2023-07-24T13:47:39;3.45;;;2.80;;
21771;SDS011;11047;47.904;8.110;2023-07-24T13:50:06;4.22;;;3.25;;
21771;SDS011;11047;47.904;8.110;2023-07-24T13:52:33;5.43;;;3.67;;
21771;SDS011;11047;47.904;8.110;2023-07-24T13:55:01;7.15;;;3.80;;
21771;SDS011;11047;47.904;8.110;2023-07-24T13:57:29;5.35;;;3.88;;
21771;SDS011;11047;47.904;8.110;2023-07-24T13:59:55;7.55;;;3.65;;
21771;SDS011;11047;47.904;8.110;2023-07-24T14:02:22;9.60;;;4.13;;
21771;SDS011;11047;47.904;8.110;2023-07-24T14:04:49;5.70;;;4.35;;
21771;SDS011;11047;47.904;8.110;2023-07-24T14:07:17;5.00;;;3.58;;
21771;SDS011;11047;47.904;8.110;2023-07-24T14:09:44;5.35;;;4.32;;
21771;SDS011;11047;47.904;8.110;2023-07-24T14:12:12;4.78;;;4.15;;
21771;SDS011;11047;47.904;8.110;2023-07-24T14:14:39;5.38;;;4.35;;
21771;SDS011;11047;47.904;8.110;2023-07-24T14:17:06;4.53;;;3.88;;
21771;SDS011;11047;47.904;8.110;2023-07-24T14:19:33;5.82;;;4.53;;
21771;SDS011;11047;47.904;8.110;2023-07-24T14:22:00;5.25;;;3.80;;
21771;SDS011;11047;47.904;8.110;2023-07-24T14:24:27;6.15;;;3.97;;
21771;SDS011;11047;47.904;8.110;2023-07-24T14:26:54;6.63;;;4.40;;
21771;SDS011;11047;47.904;8.110;2023-07-24T14:29:22;7.03;;;3.80;;
21771;SDS011;11047;47.904;8.110;2023-07-24T14:31:49;4.88;;;4.28;;
21771;SDS011;11047;47.904;8.110;2023-07-24T14:34:16;4.95;;;3.47;;
21771;SDS011;11047;47.904;8.110;2023-07-24T14:36:43;4.28;;;3.70;;
21771;SDS011;11047;47.904;8.110;2023-07-24T14:39:10;5.55;;;3.88;;
21771;SDS011;11047;47.904;8.110;2023-07-24T14:41:37;4.85;;;3.72;;
21771;SDS011;11047;47.904;8.110;2023-07-24T14:44:07;5.13;;;4.22;;
21771;SDS011;11047;47.904;8.110;2023-07-24T14:46:35;6.65;;;5.15;;
21771;SDS011;11047;47.904;8.110;2023-07-24T14:49:02;5.90;;;3.85;;
21771;SDS011;11047;47.904;8.110;2023-07-24T14:51:29;6.18;;;5.30;;
21771;SDS011;11047;47.904;8.110;2023-07-24T14:53:56;6.15;;;4.93;;
21771;SDS011;11047;47.904;8.110;2023-07-24T14:56:23;9.32;;;7.47;;
21771;SDS011;11047;47.904;8.110;2023-07-24T14:58:50;7.30;;;4.95;;